createdAt,value
2023-04-06T00:04:24.045Z,101833.28
2023-04-06T00:09:27.225Z,101824.59
2023-04-06T00:14:31.724Z,101820.84
2023-04-06T00:19:35.116Z,101822.69
2023-04-06T00:24:38.080Z,101808.72
2023-04-06T00:29:43.230Z,101802.59
2023-04-06T00:34:46.708Z,101796.63
2023-04-06T00:39:52.597Z,101772.59
2023-04-06T00:44:59.461Z,101785.94
2023-04-06T00:50:02.589Z,101779.38
2023-04-06T00:55:07.062Z,101775.97
2023-04-06T01:00:18.354Z,101776.31
2023-04-06T01:05:26.402Z,101774.16
2023-04-06T01:10:33.766Z,101773.13
2023-04-06T01:15:50.199Z,101767.03
2023-04-06T01:21:00.736Z,101760.78
2023-04-06T01:26:06.351Z,101760.56
2023-04-06T01:31:10.872Z,101752.88
2023-04-06T01:36:27.089Z,101739.25
2023-04-06T01:41:44.075Z,101738.00
2023-04-06T01:46:51.305Z,101721.38
2023-04-06T01:51:56.588Z,101728.38
2023-04-06T01:57:03.394Z,101703.59
2023-04-06T02:02:30.004Z,101716.72
2023-04-06T02:07:40.728Z,101704.59
2023-04-06T02:12:45.931Z,101700.84
2023-04-06T02:17:56.209Z,101694.63
2023-04-06T02:23:01.177Z,101689.19
2023-04-06T02:28:06.272Z,101679.16
2023-04-06T02:33:09.479Z,101683.09
2023-04-06T02:38:19.414Z,101671.34
2023-04-06T02:43:23.918Z,101671.44
2023-04-06T02:48:32.056Z,101642.72
2023-04-06T02:53:35.223Z,101668.16
2023-04-06T02:58:40.066Z,101663.88
2023-04-06T03:03:43.443Z,101655.13
2023-04-06T03:08:53.686Z,101646.00
2023-04-06T03:14:01.114Z,101645.31
2023-04-06T03:19:04.218Z,101650.09
2023-04-06T03:24:10.952Z,101631.53
2023-04-06T03:29:15.998Z,101625.41
2023-04-06T03:34:19.295Z,101634.81
2023-04-06T03:39:22.743Z,101603.81
2023-04-06T03:44:30.491Z,101622.22
2023-04-06T03:49:33.646Z,101626.72
2023-04-06T03:54:38.746Z,101627.06
2023-04-06T03:59:43.346Z,101621.97
2023-04-06T04:04:46.751Z,101623.78
2023-04-06T04:09:52.881Z,101599.59
2023-04-06T04:14:58.069Z,101602.72
2023-04-06T04:20:01.414Z,101612.44
2023-04-06T04:25:04.562Z,101604.53
2023-04-06T04:30:12.271Z,101609.97
2023-04-06T04:35:15.600Z,101613.59
2023-04-06T04:40:19.737Z,101603.03
2023-04-06T04:45:31.465Z,101610.72
2023-04-06T04:50:39.335Z,101601.41
2023-04-06T04:55:42.543Z,101599.94
2023-04-06T05:00:51.280Z,101603.66
2023-04-06T05:05:55.126Z,101605.66
2023-04-06T05:11:01.301Z,101604.19
2023-04-06T05:16:09.074Z,101606.00
2023-04-06T05:21:14.176Z,101598.28
2023-04-06T05:26:28.889Z,101572.38
2023-04-06T05:31:40.424Z,101597.59
2023-04-06T05:36:43.729Z,101599.94
2023-04-06T05:41:55.236Z,101593.66
2023-04-06T05:47:14.494Z,101589.28
2023-04-06T05:52:21.768Z,101596.00
2023-04-06T05:57:26.241Z,101593.03
2023-04-06T06:02:32.807Z,101605.88
2023-04-06T06:07:36.362Z,101604.47
2023-04-06T06:12:39.644Z,101603.09
2023-04-06T06:17:45.058Z,101595.31
2023-04-06T06:22:49.173Z,101600.63
2023-04-06T06:27:56.630Z,101595.69
2023-04-06T06:33:01.241Z,101600.53
2023-04-06T06:38:06.356Z,101600.94
2023-04-06T06:43:10.052Z,101595.41
2023-04-06T06:48:40.352Z,101593.56
2023-04-06T06:53:43.694Z,101582.19
2023-04-06T06:58:47.317Z,101585.44
2023-04-06T07:03:52.064Z,101583.88
2023-04-06T07:08:55.517Z,101585.00
2023-04-06T07:13:58.628Z,101585.03
2023-04-06T07:19:04.032Z,101573.31
2023-04-06T07:24:08.223Z,101567.72
2023-04-06T07:29:12.981Z,101562.25
2023-04-06T07:34:17.768Z,101576.94
2023-04-06T07:39:21.163Z,101575.66
2023-04-06T07:44:24.833Z,101562.25
2023-04-06T07:49:29.854Z,101565.09
2023-04-06T07:54:33.088Z,101569.41
2023-04-06T07:59:36.259Z,101568.47
2023-04-06T08:04:40.843Z,101559.56
2023-04-06T08:09:43.975Z,101560.97
2023-04-06T08:14:47.147Z,101570.72
2023-04-06T08:19:51.712Z,101571.50
2023-04-06T08:24:55.616Z,101576.41
2023-04-06T08:29:58.824Z,101579.50
2023-04-06T08:35:03.393Z,101588.00
2023-04-06T08:40:07.900Z,101576.22
2023-04-06T08:45:11.942Z,101582.28
2023-04-06T08:50:18.605Z,101579.19
2023-04-06T08:55:21.799Z,101590.91
2023-04-06T09:00:25.957Z,101581.97
2023-04-06T09:05:32.981Z,101589.72
2023-04-06T09:10:36.666Z,101577.88
2023-04-06T09:15:40.185Z,101576.53
2023-04-06T09:20:44.713Z,101578.81
2023-04-06T09:25:47.849Z,101574.22
2023-04-06T09:30:51.724Z,101568.34
2023-04-06T09:35:56.383Z,101573.16
2023-04-06T09:41:01.629Z,101565.28
2023-04-06T09:46:06.633Z,101548.47
2023-04-06T09:51:16.361Z,101543.81
2023-04-06T09:56:26.232Z,101558.84
2023-04-06T10:01:32.309Z,101566.06
2023-04-06T10:06:37.948Z,101558.94
2023-04-06T10:11:41.635Z,101549.91
2023-04-06T10:16:45.221Z,101555.75
2023-04-06T10:21:55.732Z,101570.19
2023-04-06T10:27:04.250Z,101557.72
2023-04-06T10:32:07.567Z,101568.44
2023-04-06T10:37:16.504Z,101564.06
2023-04-06T10:42:19.838Z,101552.31
2023-04-06T10:47:23.280Z,101558.16
2023-04-06T10:52:27.943Z,101547.47
2023-04-06T10:57:32.007Z,101541.88
2023-04-06T11:02:35.222Z,101528.59
2023-04-06T11:07:41.281Z,101529.59
2023-04-06T11:12:44.492Z,101517.06
2023-04-06T11:17:47.901Z,101508.44
2023-04-06T11:22:54.418Z,101505.69
2023-04-06T11:27:57.908Z,101502.94
2023-04-06T11:33:04.517Z,101497.81
2023-04-06T11:38:09.102Z,101502.94
2023-04-06T11:43:14.105Z,101482.06
2023-04-06T11:48:21.909Z,101483.97
2023-04-06T11:53:27.035Z,101473.47
2023-04-06T11:58:32.132Z,101471.03
2023-04-06T12:03:35.564Z,101473.53
2023-04-06T12:08:40.967Z,101472.38
2023-04-06T12:13:44.323Z,101472.38
2023-04-06T12:18:47.798Z,101462.53
2023-04-06T12:23:55.771Z,101464.50
2023-04-06T12:29:04.001Z,101467.25
2023-04-06T12:34:07.319Z,101457.19
2023-04-06T12:39:12.224Z,101462.50
2023-04-06T12:44:15.405Z,101444.56
2023-04-06T12:49:20.177Z,101460.25
2023-04-06T12:54:24.654Z,101457.16
2023-04-06T12:59:28.123Z,101451.69
2023-04-06T13:04:33.572Z,101440.00
2023-04-06T13:09:38.550Z,101446.06
2023-04-06T13:14:41.932Z,101429.81
2023-04-06T13:19:45.184Z,101427.25
2023-04-06T13:24:52.643Z,101421.72
2023-04-06T13:29:57.220Z,101408.38
2023-04-06T13:35:01.858Z,101411.97
2023-04-06T13:40:07.433Z,101410.00
2023-04-06T13:45:11.753Z,101408.88
2023-04-06T13:50:14.990Z,101416.25
2023-04-06T13:55:19.612Z,101412.41
2023-04-06T14:00:23.774Z,101406.13
2023-04-06T14:05:29.014Z,101402.00
2023-04-06T14:10:33.648Z,101398.16
2023-04-06T14:15:37.557Z,101391.63
2023-04-06T14:20:41.108Z,101389.97
2023-04-06T14:25:45.652Z,101391.41
2023-04-06T14:30:49.004Z,101392.38
2023-04-06T14:35:52.063Z,101379.78
2023-04-06T14:40:57.117Z,101375.88
2023-04-06T14:46:02.795Z,101376.88
2023-04-06T14:51:06.003Z,101358.31
2023-04-06T14:56:10.801Z,101367.13
2023-04-06T15:01:13.915Z,101371.63
2023-04-06T15:06:18.716Z,101366.75
2023-04-06T15:11:24.003Z,101360.69
2023-04-06T15:16:27.414Z,101355.09
2023-04-06T15:21:31.336Z,101356.00
2023-04-06T15:26:35.861Z,101349.88
2023-04-06T15:31:40.147Z,101351.19
2023-04-06T15:36:44.677Z,101349.38
2023-04-06T15:41:49.472Z,101342.38
2023-04-06T15:46:53.716Z,101344.31
2023-04-06T15:57:01.496Z,101326.56
2023-04-06T16:02:04.651Z,101327.25
2023-04-06T16:07:07.932Z,101331.16
2023-04-06T16:12:13.194Z,101332.28
2023-04-06T16:17:16.814Z,101316.34
2023-04-06T16:22:20.942Z,101325.63
2023-04-06T16:27:39.452Z,101326.44
2023-04-06T16:32:47.333Z,101321.16
2023-04-06T16:37:54.232Z,101317.63
2023-04-06T16:42:58.661Z,101307.94
2023-04-06T16:48:01.846Z,101322.03
2023-04-06T16:53:05.035Z,101316.63
2023-04-06T16:58:09.934Z,101316.56
2023-04-06T17:03:13.289Z,101315.44
2023-04-06T17:08:16.782Z,101310.75
2023-04-06T17:13:21.623Z,101307.63
2023-04-06T17:18:24.794Z,101303.25
2023-04-06T17:23:28.249Z,101307.63
2023-04-06T17:28:33.157Z,101306.88
2023-04-06T17:33:36.717Z,101308.63
2023-04-06T17:38:44.063Z,101315.00
2023-04-06T17:43:51.201Z,101310.56
2023-04-06T17:48:54.514Z,101320.16
2023-04-06T17:53:57.842Z,101297.84
2023-04-06T17:59:02.732Z,101321.06
2023-04-06T18:04:05.886Z,101321.16
2023-04-06T18:09:09.514Z,101322.75
2023-04-06T18:14:16.135Z,101327.09
2023-04-06T18:19:19.828Z,101335.28
2023-04-06T18:24:37.398Z,101332.75
2023-04-06T18:29:47.539Z,101333.78
2023-04-06T18:34:55.603Z,101323.09
2023-04-06T18:39:59.119Z,101341.00
2023-04-06T18:45:03.731Z,101339.28
2023-04-06T18:50:07.712Z,101338.38
2023-04-06T18:55:11.281Z,101344.53
2023-04-06T19:00:17.391Z,101350.94
2023-04-06T19:05:22.394Z,101351.84
2023-04-06T19:10:25.847Z,101342.81
2023-04-06T19:15:30.351Z,101354.41
2023-04-06T19:20:35.272Z,101361.69
2023-04-06T19:25:38.544Z,101372.19
2023-04-06T19:30:43.315Z,101379.66
2023-04-06T19:35:46.755Z,101374.31
2023-04-06T19:40:50.067Z,101383.25
2023-04-06T19:45:55.009Z,101378.22
2023-04-06T19:50:58.302Z,101390.59
2023-04-06T19:56:01.384Z,101404.00
2023-04-06T20:01:06.276Z,101398.03
2023-04-06T20:06:09.626Z,101411.22
2023-04-06T20:11:14.157Z,101404.16
2023-04-06T20:16:18.627Z,101409.34
2023-04-06T20:21:21.912Z,101410.91
2023-04-06T20:26:25.149Z,101413.59
2023-04-06T20:31:30.411Z,101414.72
2023-04-06T20:36:34.126Z,101407.31
2023-04-06T20:41:39.897Z,101430.38
2023-04-06T20:46:45.994Z,101419.91
2023-04-06T20:51:49.770Z,101423.59
2023-04-06T20:56:52.958Z,101425.06
2023-04-06T21:01:58.227Z,101394.47
2023-04-06T21:07:01.660Z,101422.13
2023-04-06T21:12:07.562Z,101421.28
2023-04-06T21:17:12.698Z,101438.91
2023-04-06T21:22:16.175Z,101436.16
2023-04-06T21:27:19.294Z,101438.78
2023-04-06T21:32:23.964Z,101439.56
2023-04-06T21:37:27.282Z,101422.22
2023-04-06T21:42:30.495Z,101441.88
2023-04-06T21:47:36.025Z,101438.13
2023-04-06T21:52:39.297Z,101449.25
2023-04-06T21:57:42.831Z,101452.72
2023-04-06T22:02:47.795Z,101447.47
2023-04-06T22:07:54.950Z,101454.47
2023-04-06T22:12:58.343Z,101445.81
2023-04-06T22:18:03.281Z,101454.59
2023-04-06T22:23:06.513Z,101453.63
2023-04-06T22:28:09.685Z,101452.22
2023-04-06T22:33:14.118Z,101467.19
2023-04-06T22:38:17.298Z,101469.06
2023-04-06T22:43:20.386Z,101475.22
2023-04-06T22:48:26.072Z,101478.56
2023-04-06T22:53:29.511Z,101488.31
2023-04-06T22:58:32.940Z,101490.88
2023-04-06T23:03:37.438Z,101473.09
2023-04-06T23:08:40.797Z,101476.03
2023-04-06T23:13:43.922Z,101475.84
2023-04-06T23:18:48.702Z,101494.09
2023-04-06T23:23:51.663Z,101504.41
2023-04-06T23:28:55.110Z,101497.34
2023-04-06T23:33:59.552Z,101501.59
2023-04-06T23:39:02.652Z,101507.41
2023-04-06T23:44:05.920Z,101499.22
2023-04-06T23:49:10.333Z,101499.88
2023-04-06T23:54:14.152Z,101500.75
2023-04-06T23:59:17.358Z,101504.19
